Time;durP1;ratioP1;P1;durP2;ratioP2;P2;SDS_P1;SDS_P2;PMS_P1;PMS_P2;Temp;Humidity;BMP_temperature;BMP_pressure;BME280_temperature;BME280_humidity;BME280_pressure;Samples;Min_cycle;Max_cycle;Signal;HPM_P1;HPM_P2
2021/04/05 00:01:43;;;;;;;26.37;12.50;;;5.90;80.30;;;;;;5017694;28;20173;-87
2021/04/05 00:04:09;;;;;;;23.30;13.07;;;5.90;80.30;;;;;;5034806;28;20655;-87
2021/04/05 00:06:37;;;;;;;24.57;11.83;;;5.90;80.50;;;;;;5016826;28;20567;-88
2021/04/05 00:09:09;;;;;;;26.27;13.33;;;5.90;80.20;;;;;;5034892;28;20645;-88
2021/04/05 00:11:44;;;;;;;26.27;13.67;;;6.00;80.00;;;;;;5016829;28;20181;-87
2021/04/05 00:14:21;;;;;;;18.93;10.83;;;6.00;80.20;;;;;;5016776;28;20648;-87
2021/04/05 00:16:54;;;;;;;25.47;12.03;;;6.00;80.00;;;;;;5016691;28;20553;-87
2021/04/05 00:19:31;;;;;;;25.27;12.43;;;6.00;79.90;;;;;;5034390;28;20290;-87
2021/04/05 00:22:04;;;;;;;25.00;9.87;;;6.00;79.90;;;;;;5034692;28;20165;-87
2021/04/05 00:24:31;;;;;;;22.87;14.30;;;6.00;79.90;;;;;;5034314;28;20529;-87
2021/04/05 00:27:04;;;;;;;20.30;11.10;;;6.00;80.00;;;;;;5016462;28;20639;-87
2021/04/05 00:29:34;;;;;;;28.90;13.73;;;6.00;80.00;;;;;;5016330;28;20180;-87
2021/04/05 00:32:10;;;;;;;20.90;13.27;;;6.00;80.30;;;;;;5034171;28;20227;-87
2021/04/05 00:34:49;;;;;;;30.97;14.40;;;6.00;80.50;;;;;;5034851;28;20169;-86
2021/04/05 00:37:21;;;;;;;28.30;12.20;;;6.10;80.30;;;;;;5016357;28;20908;-87
2021/04/05 00:39:58;;;;;;;19.63;10.70;;;6.10;80.10;;;;;;5016365;28;20201;-86
2021/04/05 00:42:26;;;;;;;22.87;11.70;;;6.30;79.80;;;;;;5034581;28;20215;-87
2021/04/05 00:44:58;;;;;;;22.17;12.60;;;6.30;79.60;;;;;;5016232;28;20545;-86
2021/04/05 00:47:24;;;;;;;23.60;12.23;;;6.30;79.70;;;;;;5033889;28;20606;-87
2021/04/05 00:50:02;;;;;;;24.80;11.67;;;6.30;79.40;;;;;;5033803;28;20252;-86
2021/04/05 00:52:39;;;;;;;32.37;14.97;;;6.30;79.80;;;;;;5033995;28;20165;-86
2021/04/05 00:55:19;;;;;;;28.13;13.90;;;6.30;79.90;;;;;;5016619;28;20177;-86
2021/04/05 00:57:53;;;;;;;21.90;10.87;;;6.20;79.40;;;;;;5015736;28;20224;-86
2021/04/05 01:00:38;;;;;;;22.00;11.73;;;6.20;79.70;;;;;;5016637;28;20177;-86
2021/04/05 01:03:06;;;;;;;24.63;11.50;;;6.20;79.80;;;;;;5016110;28;20180;-86
2021/04/05 01:05:32;;;;;;;25.73;15.40;;;6.20;79.70;;;;;;5015788;28;20173;-86
2021/04/05 01:08:04;;;;;;;32.70;14.37;;;6.20;80.00;;;;;;5033414;28;20289;-86
2021/04/05 01:10:33;;;;;;;25.00;14.50;;;6.20;79.90;;;;;;5015113;28;20179;-87
2021/04/05 01:12:59;;;;;;;25.90;15.00;;;6.20;79.90;;;;;;5033473;28;20177;-87
2021/04/05 01:15:26;;;;;;;31.37;15.40;;;6.20;80.30;;;;;;5033440;28;20177;-86
2021/04/05 01:17:52;;;;;;;21.47;11.77;;;6.30;80.10;;;;;;5033239;28;20204;-87
2021/04/05 01:20:27;;;;;;;25.13;13.10;;;6.20;80.30;;;;;;5033526;28;20177;-87
2021/04/05 01:22:59;;;;;;;20.93;11.17;;;6.20;80.30;;;;;;5033370;28;20716;-87
2021/04/05 01:25:34;;;;;;;32.60;15.63;;;6.20;80.50;;;;;;5033180;28;20195;-87
2021/04/05 01:28:04;;;;;;;26.07;11.97;;;6.30;80.70;;;;;;5015547;28;20206;-87
2021/04/05 01:30:56;;;;;;;34.67;11.60;;;6.30;80.90;;;;;;5015608;28;20184;-87
2021/04/05 01:33:34;;;;;;;30.37;13.90;;;6.30;80.90;;;;;;5033232;28;20364;-87
2021/04/05 01:36:18;;;;;;;30.23;13.10;;;6.30;80.80;;;;;;5033149;28;20180;-87
2021/04/05 01:38:57;;;;;;;27.93;16.40;;;6.30;81.00;;;;;;5033091;28;20197;-87
2021/04/05 01:41:31;;;;;;;36.80;16.17;;;6.30;81.20;;;;;;5015450;28;20588;-87
2021/04/05 01:44:04;;;;;;;21.67;12.30;;;6.30;81.60;;;;;;5033249;28;20158;-87
2021/04/05 01:46:37;;;;;;;36.40;12.77;;;6.30;81.20;;;;;;5015265;28;20653;-87
2021/04/05 01:49:14;;;;;;;24.03;12.97;;;6.30;81.50;;;;;;5033266;28;20606;-87
2021/04/05 01:51:44;;;;;;;20.53;10.43;;;6.30;81.40;;;;;;5015299;28;20173;-87
2021/04/05 01:54:19;;;;;;;25.90;14.63;;;6.40;81.20;;;;;;5033276;28;20185;-86
2021/04/05 01:56:52;;;;;;;19.03;11.97;;;6.30;81.70;;;;;;5014950;28;20220;-87
2021/04/05 01:59:24;;;;;;;30.33;14.27;;;6.40;81.40;;;;;;5015109;28;20202;-86
2021/04/05 02:01:57;;;;;;;36.53;16.03;;;6.40;81.60;;;;;;5015197;28;20173;-87
2021/04/05 02:04:23;;;;;;;28.13;14.27;;;6.40;81.70;;;;;;5015362;28;20181;-87
2021/04/05 02:06:58;;;;;;;29.53;13.90;;;6.40;81.80;;;;;;5032804;28;20189;-87
2021/04/05 02:09:28;;;;;;;26.33;12.40;;;6.40;82.00;;;;;;5032907;28;20201;-87
2021/04/05 02:12:01;;;;;;;31.43;15.47;;;6.40;81.80;;;;;;5032798;28;20204;-87
2021/04/05 02:14:44;;;;;;;38.93;14.10;;;6.40;82.20;;;;;;5032214;28;20663;-87
2021/04/05 02:17:21;;;;;;;31.73;14.43;;;6.40;82.30;;;;;;5015063;28;20207;-87
2021/04/05 02:19:52;;;;;;;31.57;12.13;;;6.40;82.30;;;;;;5032665;28;20189;-87
2021/04/05 02:22:18;;;;;;;30.50;14.97;;;6.40;82.30;;;;;;5033736;28;20182;-87
2021/04/05 02:24:54;;;;;;;37.93;16.73;;;6.50;82.60;;;;;;5036561;28;20519;-87
2021/04/05 02:27:23;;;;;;;32.23;14.63;;;6.50;82.60;;;;;;5036470;28;20279;-87
2021/04/05 02:30:02;;;;;;;28.37;14.37;;;6.50;82.60;;;;;;5036391;28;20185;-87
2021/04/05 02:32:34;;;;;;;29.73;15.17;;;6.60;82.60;;;;;;5036358;28;20181;-87
2021/04/05 02:35:04;;;;;;;31.30;15.93;;;6.50;82.60;;;;;;5018477;28;20185;-87
2021/04/05 02:37:40;;;;;;;35.00;16.00;;;6.60;82.70;;;;;;5018406;28;20197;-87
2021/04/05 02:40:13;;;;;;;36.60;17.47;;;6.60;82.80;;;;;;5036219;28;20184;-87
2021/04/05 02:42:47;;;;;;;32.17;14.30;;;6.60;83.00;;;;;;5036803;28;20185;-87
2021/04/05 02:45:17;;;;;;;28.80;12.43;;;6.60;83.10;;;;;;5037253;28;20176;-87
2021/04/05 02:47:43;;;;;;;27.83;14.10;;;6.60;83.60;;;;;;5036269;28;20193;-87
2021/04/05 02:50:10;;;;;;;31.63;14.23;;;6.50;83.80;;;;;;5038123;28;20195;-87
2021/04/05 02:52:51;;;;;;;38.90;13.80;;;6.50;84.60;;;;;;5019491;28;20661;-87
2021/04/05 02:55:24;;;;;;;36.27;16.93;;;6.40;85.10;;;;;;5018186;28;20219;-87
2021/04/05 02:58:01;;;;;;;31.27;16.00;;;6.40;85.20;;;;;;5035748;28;20279;-87
2021/04/05 03:00:34;;;;;;;34.90;14.80;;;6.40;85.50;;;;;;5018199;28;20177;-86
2021/04/05 03:03:11;;;;;;;33.30;15.23;;;6.40;85.80;;;;;;5018189;28;20227;-87
2021/04/05 03:05:43;;;;;;;44.50;18.20;;;6.40;86.20;;;;;;5018297;28;20185;-87
2021/04/05 03:08:16;;;;;;;40.43;18.77;;;6.30;86.60;;;;;;5035674;28;20579;-87
2021/04/05 03:10:50;;;;;;;38.60;18.27;;;6.30;87.30;;;;;;5036052;28;20555;-87
2021/04/05 03:13:19;;;;;;;44.90;20.80;;;6.30;87.90;;;;;;5035716;28;20225;-87
2021/04/05 03:15:48;;;;;;;33.80;16.87;;;6.20;88.30;;;;;;5017883;28;20177;-86
2021/04/05 03:18:24;;;;;;;32.37;16.73;;;6.10;89.10;;;;;;5035409;28;20266;-86
2021/04/05 03:21:01;;;;;;;33.43;16.53;;;6.10;89.40;;;;;;5035449;28;20223;-86
2021/04/05 03:23:33;;;;;;;38.63;15.77;;;6.20;89.40;;;;;;5035568;28;20168;-86
2021/04/05 03:26:07;;;;;;;34.93;17.90;;;6.10;89.70;;;;;;5035414;28;20208;-86
2021/04/05 03:28:44;;;;;;;26.93;15.00;;;6.10;89.90;;;;;;5017675;28;20197;-85
2021/04/05 03:31:26;;;;;;;32.60;17.23;;;6.10;90.10;;;;;;5017641;28;20180;-85
2021/04/05 03:34:11;;;;;;;36.60;13.10;;;6.10;90.50;;;;;;5034261;28;20181;-86
2021/04/05 03:36:50;;;;;;;37.90;17.20;;;6.00;90.70;;;;;;5017541;28;20196;-85
2021/04/05 03:39:30;;;;;;;33.93;16.00;;;6.00;91.00;;;;;;5035104;28;20577;-86
2021/04/05 03:42:15;;;;;;;31.50;15.00;;;6.00;91.20;;;;;;5017339;28;20195;-86
2021/04/05 03:44:52;;;;;;;21.73;10.53;;;6.10;91.30;;;;;;5035066;28;20176;-87
2021/04/05 03:47:49;;;;;;;5.63;3.50;;;6.00;91.20;;;;;;5017276;28;20196;-87
2021/04/05 03:50:40;;;;;;;4.87;1.83;;;5.70;88.90;;;;;;5035235;28;20223;-87
2021/04/05 03:53:16;;;;;;;4.87;2.17;;;5.40;89.30;;;;;;5017278;28;20536;-87
2021/04/05 03:55:51;;;;;;;4.20;1.60;;;5.30;89.50;;;;;;5034948;28;20235;-87
2021/04/05 03:58:28;;;;;;;4.67;1.23;;;5.20;90.30;;;;;;5034527;28;20243;-87
2021/04/05 04:01:07;;;;;;;3.73;1.70;;;5.00;90.10;;;;;;5016973;28;20210;-87
2021/04/05 04:04:00;;;;;;;0.80;0.80;;;5.00;89.60;;;;;;5016910;28;20207;-87
2021/04/05 04:09:14;;;;;;;3.03;1.10;;;4.90;90.10;;;;;;5034667;28;20187;-88
2021/04/05 04:11:48;;;;;;;2.77;1.17;;;5.00;89.90;;;;;;5016740;28;20184;-88
2021/04/05 04:14:24;;;;;;;9.40;1.90;;;4.80;89.30;;;;;;5016752;28;20188;-88
2021/04/05 04:16:56;;;;;;;3.93;1.07;;;4.60;89.20;;;;;;5016663;28;20287;-88
2021/04/05 04:19:29;;;;;;;8.17;2.60;;;4.60;89.60;;;;;;5016529;28;20211;-88
2021/04/05 04:22:00;;;;;;;6.03;1.67;;;4.60;89.90;;;;;;5034348;28;20647;-88
2021/04/05 04:24:28;;;;;;;5.77;1.27;;;4.50;90.10;;;;;;5034268;28;20233;-87
2021/04/05 04:27:05;;;;;;;6.67;1.50;;;4.50;89.90;;;;;;5016554;28;20543;-88
2021/04/05 04:29:31;;;;;;;10.63;1.67;;;4.40;90.40;;;;;;5034181;28;20181;-87
2021/04/05 04:32:07;;;;;;;8.83;1.80;;;4.40;90.50;;;;;;5017297;28;20180;-87
2021/04/05 04:34:44;;;;;;;10.47;1.80;;;4.30;90.50;;;;;;5034145;28;20601;-87
2021/04/05 04:37:18;;;;;;;6.67;1.73;;;4.40;90.50;;;;;;5016242;28;20721;-87
2021/04/05 04:39:52;;;;;;;9.77;2.00;;;4.40;90.40;;;;;;5016760;28;20560;-87
2021/04/05 04:42:19;;;;;;;5.33;2.00;;;4.40;90.00;;;;;;5016482;28;20178;-87
2021/04/05 04:44:48;;;;;;;9.30;1.67;;;4.50;89.80;;;;;;5015904;28;20234;-87
2021/04/05 04:47:14;;;;;;;6.20;1.73;;;4.60;89.40;;;;;;5016079;28;20211;-87
2021/04/05 04:49:48;;;;;;;17.27;2.70;;;4.60;89.50;;;;;;5016104;28;20183;-87
2021/04/05 04:52:24;;;;;;;9.80;2.30;;;4.70;89.50;;;;;;5034090;28;20537;-87
2021/04/05 04:54:58;;;;;;;6.97;1.60;;;4.70;89.70;;;;;;5034070;28;20167;-87
2021/04/05 04:57:25;;;;;;;10.23;2.40;;;4.60;88.80;;;;;;5061535;22;20279;-81
2021/04/05 04:59:54;;;;;;;4.97;1.80;;;4.40;88.20;;;;;;5036036;28;20284;-82
2021/04/05 05:02:25;;;;;;;11.93;2.20;;;4.40;87.60;;;;;;5053709;28;20168;-82
2021/04/05 05:04:58;;;;;;;10.27;2.07;;;4.30;87.20;;;;;;5054149;28;20539;-82
2021/04/05 05:07:34;;;;;;;15.90;3.30;;;4.30;87.00;;;;;;5053669;28;20195;-82
2021/04/05 05:10:09;;;;;;;11.10;2.47;;;4.20;86.30;;;;;;5035997;28;20589;-82
2021/04/05 05:12:43;;;;;;;11.50;3.37;;;4.10;86.60;;;;;;5036065;28;20510;-82
2021/04/05 05:15:21;;;;;;;13.20;2.57;;;4.10;86.60;;;;;;5035746;28;20178;-81
2021/04/05 05:17:53;;;;;;;20.47;3.27;;;4.10;86.50;;;;;;5053706;28;20205;-81
2021/04/05 05:20:25;;;;;;;24.60;3.13;;;4.10;86.60;;;;;;5053739;28;20176;-83
2021/04/05 05:23:04;;;;;;;13.93;2.67;;;4.10;86.70;;;;;;5035487;28;20170;-82
2021/04/05 05:25:44;;;;;;;13.83;2.40;;;4.00;87.20;;;;;;5035420;28;20573;-83
2021/04/05 05:28:22;;;;;;;10.30;2.93;;;4.00;87.40;;;;;;5053638;28;20226;-81
2021/04/05 05:30:57;;;;;;;9.87;2.40;;;4.00;87.40;;;;;;5053244;28;20178;-83
2021/04/05 05:33:34;;;;;;;16.03;3.23;;;3.70;87.30;;;;;;5053409;28;20171;-82
2021/04/05 05:36:10;;;;;;;19.97;2.90;;;3.60;87.80;;;;;;5053482;28;20186;-82
2021/04/05 05:38:49;;;;;;;13.63;2.70;;;3.60;87.70;;;;;;5053242;28;20198;-83
2021/04/05 05:41:30;;;;;;;13.57;2.83;;;3.60;87.40;;;;;;5053195;28;20209;-81
2021/04/05 05:44:13;;;;;;;6.80;2.03;;;3.70;87.20;;;;;;5053467;28;20148;-82
2021/04/05 05:46:49;;;;;;;13.03;2.77;;;3.60;86.20;;;;;;5035495;28;20179;-82
2021/04/05 05:49:37;;;;;;;7.87;2.83;;;3.60;86.40;;;;;;5053333;28;20190;-82
2021/04/05 05:52:24;;;;;;;9.40;1.90;;;3.60;85.60;;;;;;5035604;28;20172;-82
2021/04/05 05:55:20;;;;;;;11.73;2.40;;;3.50;85.60;;;;;;5035314;28;20549;-82
2021/04/05 05:58:07;;;;;;;12.53;2.40;;;3.50;85.90;;;;;;5037381;28;20659;-82
2021/04/05 06:00:43;;;;;;;13.93;3.27;;;3.30;86.10;;;;;;5057456;28;20153;-82
2021/04/05 06:03:30;;;;;;;13.50;2.40;;;3.40;86.30;;;;;;5039471;28;20286;-82
2021/04/05 06:06:22;;;;;;;9.40;2.90;;;3.50;86.40;;;;;;5057385;28;20217;-83
2021/04/05 06:09:06;;;;;;;10.73;2.37;;;3.30;86.40;;;;;;5057158;28;20575;-83
2021/04/05 06:11:55;;;;;;;14.50;2.60;;;3.30;87.20;;;;;;5056992;28;20202;-81
2021/04/05 06:14:41;;;;;;;9.77;2.10;;;3.20;87.40;;;;;;5056916;28;20671;-81
2021/04/05 06:17:29;;;;;;;13.57;2.57;;;3.00;87.80;;;;;;5056673;28;20184;-82
2021/04/05 06:20:20;;;;;;;11.73;2.47;;;2.80;88.50;;;;;;5038773;28;20200;-82
2021/04/05 06:23:24;;;;;;;9.60;1.90;;;2.80;88.40;;;;;;5038838;28;20278;-82
2021/04/05 06:26:17;;;;;;;6.57;1.90;;;2.40;88.00;;;;;;5056834;28;20171;-83
2021/04/05 06:28:54;;;;;;;7.07;2.10;;;2.30;88.40;;;;;;5056499;28;20205;-83
2021/04/05 06:31:32;;;;;;;10.17;2.00;;;2.30;88.80;;;;;;5056828;28;20180;-83
2021/04/05 06:34:21;;;;;;;8.80;1.87;;;2.30;89.10;;;;;;5056982;28;20164;-83
2021/04/05 06:37:15;;;;;;;6.00;1.70;;;2.30;89.10;;;;;;5056677;28;20183;-82
2021/04/05 06:39:47;;;;;;;10.60;2.00;;;2.30;89.30;;;;;;5056559;28;20657;-83
2021/04/05 06:42:54;;;;;;;7.43;2.00;;;2.30;89.30;;;;;;5056690;28;20161;-83
2021/04/05 06:45:43;;;;;;;10.60;1.80;;;2.50;89.30;;;;;;5056210;28;20651;-82
2021/04/05 06:48:37;;;;;;;8.47;1.97;;;2.60;89.10;;;;;;5038280;28;20287;-82
2021/04/05 06:51:40;;;;;;;11.23;1.90;;;2.70;88.60;;;;;;5038312;28;20729;-82
2021/04/05 06:54:23;;;;;;;7.77;1.60;;;2.80;88.50;;;;;;5039916;28;20183;-82
2021/04/05 06:57:12;;;;;;;13.40;2.27;;;2.90;88.30;;;;;;5056511;28;20177;-82
2021/04/05 07:00:02;;;;;;;13.50;2.20;;;2.90;87.80;;;;;;5056259;28;20213;-82
2021/04/05 07:02:46;;;;;;;5.37;1.83;;;2.90;87.90;;;;;;5039137;28;20157;-83
2021/04/05 07:05:33;;;;;;;14.70;1.87;;;2.90;87.00;;;;;;5038177;28;20206;-83
2021/04/05 07:08:37;;;;;;;9.23;2.47;;;2.90;87.50;;;;;;5037893;28;20194;-82
2021/04/05 07:11:27;;;;;;;9.50;2.10;;;3.00;87.30;;;;;;5056046;28;20206;-82
2021/04/05 07:14:24;;;;;;;13.17;2.60;;;3.00;87.30;;;;;;5055994;28;20175;-81
2021/04/05 07:17:14;;;;;;;9.40;2.00;;;3.10;85.80;;;;;;5038011;28;20214;-81
2021/04/05 07:20:01;;;;;;;13.63;2.70;;;3.30;86.30;;;;;;5055970;28;20196;-81
2021/04/05 07:22:43;;;;;;;10.03;2.20;;;3.30;84.90;;;;;;5038433;28;20178;-83
2021/04/05 07:25:31;;;;;;;8.37;1.80;;;3.20;84.70;;;;;;5056875;28;20546;-82
2021/04/05 07:28:08;;;;;;;10.27;2.10;;;3.00;84.50;;;;;;5038250;28;20271;-82
2021/04/05 07:30:41;;;;;;;7.10;1.47;;;3.10;83.70;;;;;;5056296;28;20263;-82
2021/04/05 07:33:35;;;;;;;9.80;1.90;;;3.10;84.00;;;;;;5040122;28;20164;-82
2021/04/05 07:36:38;;;;;;;2.77;1.10;;;3.10;82.50;;;;;;5058404;28;20523;-83
2021/04/05 07:39:30;;;;;;;12.77;1.90;;;3.10;80.70;;;;;;5039816;28;20290;-81
2021/04/05 07:42:31;;;;;;;10.47;1.90;;;3.30;82.60;;;;;;5055354;28;20680;-82
2021/04/05 07:45:26;;;;;;;11.27;1.93;;;3.70;83.10;;;;;;5055246;28;20676;-81
2021/04/05 07:48:37;;;;;;;8.60;1.70;;;3.80;82.30;;;;;;5037524;28;20188;-80
2021/04/05 07:51:19;;;;;;;2.50;1.37;;;3.90;82.60;;;;;;4997167;28;20731;-82
2021/04/05 07:54:03;;;;;;;0.87;0.83;;;3.20;81.10;;;;;;5037430;28;20574;-82
2021/04/05 07:56:39;;;;;;;0.80;0.80;;;2.60;80.90;;;;;;5055246;28;20159;-82
2021/04/05 07:59:37;;;;;;;1.07;0.87;;;2.30;83.40;;;;;;5037100;28;20219;-82
2021/04/05 08:02:50;;;;;;;0.90;0.90;;;2.40;84.40;;;;;;5037321;28;20176;-81
2021/04/05 08:05:41;;;;;;;1.93;1.00;;;2.50;86.10;;;;;;5035983;28;20182;-81
2021/04/05 08:08:50;;;;;;;2.67;1.27;;;2.70;86.80;;;;;;5054835;28;20362;-82
2021/04/05 08:11:30;;;;;;;2.93;1.23;;;2.80;86.10;;;;;;5037541;28;20218;-81
2021/04/05 08:14:53;;;;;;;4.17;1.37;;;2.80;84.90;;;;;;5054967;28;20178;-81
2021/04/05 08:17:44;;;;;;;4.00;1.27;;;2.80;84.90;;;;;;4974732;28;20209;-81
2021/04/05 08:20:19;;;;;;;2.80;1.30;;;2.40;85.60;;;;;;5052655;28;20231;-82
2021/04/05 08:22:56;;;;;;;3.27;1.00;;;1.90;87.10;;;;;;5055126;28;20528;-81
2021/04/05 08:25:46;;;;;;;0.90;0.77;;;1.80;87.90;;;;;;5055140;28;20539;-82
2021/04/05 08:28:33;;;;;;;4.63;1.20;;;1.80;87.70;;;;;;5055045;28;20237;-81
2021/04/05 08:31:19;;;;;;;2.27;1.20;;;1.80;87.20;;;;;;5055351;28;20167;-82
2021/04/05 08:34:17;;;;;;;11.87;1.80;;;1.50;86.90;;;;;;5037325;28;20169;-81
2021/04/05 08:36:51;;;;;;;6.37;1.90;;;1.00;86.70;;;;;;5054826;28;20167;-82
2021/04/05 08:39:49;;;;;;;5.77;2.30;;;0.90;87.00;;;;;;5054447;28;20306;-81
2021/04/05 08:42:39;;;;;;;4.07;1.70;;;0.90;87.10;;;;;;5055205;28;20510;-81
2021/04/05 08:45:19;;;;;;;16.50;3.00;;;1.10;87.10;;;;;;5037609;28;20164;-81
2021/04/05 08:47:53;;;;;;;12.40;2.60;;;1.20;85.90;;;;;;5036268;28;20241;-82
2021/04/05 08:50:27;;;;;;;9.37;2.07;;;1.30;86.30;;;;;;5036335;28;20171;-82
2021/04/05 08:53:01;;;;;;;12.77;2.20;;;1.60;86.70;;;;;;5054751;28;20163;-81
2021/04/05 08:55:32;;;;;;;11.43;2.50;;;1.70;85.90;;;;;;5036684;28;20172;-82
2021/04/05 08:58:32;;;;;;;11.30;2.67;;;1.70;84.70;;;;;;5036158;28;20230;-82
2021/04/05 09:01:06;;;;;;;13.27;2.43;;;1.90;85.20;;;;;;5035904;28;20198;-82
2021/04/05 09:03:48;;;;;;;21.83;3.10;;;2.00;83.00;;;;;;5054049;28;20252;-81
2021/04/05 09:06:27;;;;;;;13.17;2.60;;;2.10;84.00;;;;;;5053715;28;20553;-82
2021/04/05 09:09:11;;;;;;;16.87;3.47;;;2.40;84.60;;;;;;5035662;28;20691;-82
2021/04/05 09:11:44;;;;;;;17.30;3.40;;;2.60;82.80;;;;;;5036303;28;20182;-82
2021/04/05 09:14:23;;;;;;;14.90;3.23;;;2.80;83.00;;;;;;5053638;28;20207;-82
2021/04/05 09:17:33;;;;;;;13.87;3.10;;;3.00;81.70;;;;;;5053853;28;20176;-82
2021/04/05 09:20:24;;;;;;;19.70;3.53;;;3.10;78.80;;;;;;5053753;28;20193;-81
2021/04/05 09:23:31;;;;;;;13.40;2.77;;;3.20;81.40;;;;;;5053932;28;20173;-81
2021/04/05 09:26:35;;;;;;;14.43;2.97;;;3.50;80.30;;;;;;5035684;28;20172;-81
2021/04/05 09:29:34;;;;;;;11.17;2.23;;;3.80;79.60;;;;;;5035650;28;20203;-81
2021/04/05 09:32:49;;;;;;;11.77;2.87;;;3.50;75.80;;;;;;5052974;28;20174;-81
2021/04/05 09:35:46;;;;;;;9.07;1.93;;;3.50;72.60;;;;;;5053425;28;20183;-82
2021/04/05 09:38:34;;;;;;;14.23;2.07;;;3.40;66.00;;;;;;5053392;28;20224;-81
2021/04/05 09:41:30;;;;;;;11.23;2.00;;;3.30;59.40;;;;;;5035716;28;20262;-82
2021/04/05 09:44:24;;;;;;;4.67;1.77;;;3.20;62.00;;;;;;5053429;28;20545;-81
2021/04/05 09:47:24;;;;;;;7.90;2.23;;;3.40;58.50;;;;;;5035517;28;20231;-81
2021/04/05 09:50:34;;;;;;;6.60;2.47;;;3.50;59.40;;;;;;5035338;28;20264;-81
2021/04/05 09:53:28;;;;;;;10.03;2.13;;;3.80;60.40;;;;;;4990622;28;20189;-82
2021/04/05 09:56:05;;;;;;;9.77;2.13;;;3.60;56.40;;;;;;5053643;28;20620;-81
2021/04/05 09:58:46;;;;;;;12.77;2.07;;;3.50;56.20;;;;;;5053708;28;20224;-80
2021/04/05 10:01:29;;;;;;;7.63;1.73;;;3.40;56.10;;;;;;5053464;28;20292;-80
2021/04/05 10:04:06;;;;;;;18.40;5.10;;;3.60;58.80;;;;;;5053730;28;20188;-81
2021/04/05 10:06:35;;;;;;;8.67;2.57;;;3.90;59.80;;;;;;5035481;28;20182;-81
2021/04/05 10:09:12;;;;;;;7.90;2.10;;;4.10;57.00;;;;;;5035178;28;20204;-79
2021/04/05 10:11:44;;;;;;;8.60;2.90;;;4.10;58.20;;;;;;5053944;28;20244;-82
2021/04/05 10:14:18;;;;;;;10.93;2.73;;;4.30;57.60;;;;;;5053349;28;20179;-82
2021/04/05 10:16:53;;;;;;;14.43;2.63;;;4.50;57.90;;;;;;5036092;28;20181;-82
2021/04/05 10:19:34;;;;;;;14.70;2.33;;;4.50;56.50;;;;;;5035463;28;20218;-81
2021/04/05 10:22:07;;;;;;;9.43;2.43;;;4.30;55.10;;;;;;5035522;28;20160;-80
2021/04/05 10:24:44;;;;;;;10.17;2.80;;;4.40;59.80;;;;;;5053349;28;20237;-82
2021/04/05 10:27:16;;;;;;;15.57;2.50;;;4.40;60.00;;;;;;5035086;28;20174;-81
2021/04/05 10:29:51;;;;;;;15.03;2.70;;;4.50;62.50;;;;;;5052937;28;20167;-82
2021/04/05 10:32:28;;;;;;;11.60;2.60;;;4.70;61.80;;;;;;5035232;28;20189;-81
2021/04/05 10:35:04;;;;;;;18.97;3.43;;;4.80;59.20;;;;;;5053103;28;20170;-81
2021/04/05 10:37:42;;;;;;;10.90;2.70;;;4.80;58.30;;;;;;5053070;28;20223;-81
2021/04/05 10:40:12;;;;;;;9.93;1.77;;;5.00;59.50;;;;;;5052670;28;20225;-80
2021/04/05 10:42:50;;;;;;;7.47;2.50;;;4.70;54.30;;;;;;5052742;28;20177;-80
2021/04/05 10:45:26;;;;;;;10.43;2.43;;;4.40;51.80;;;;;;5057466;28;20519;-81
2021/04/05 10:48:06;;;;;;;9.60;2.13;;;4.60;55.50;;;;;;5056729;28;20225;-82
2021/04/05 10:50:46;;;;;;;10.73;1.70;;;4.90;54.90;;;;;;5038452;28;20173;-82
2021/04/05 10:53:22;;;;;;;8.40;1.90;;;4.30;51.70;;;;;;5056399;28;20164;-82
2021/04/05 10:56:02;;;;;;;6.47;2.20;;;4.50;53.70;;;;;;5038342;28;20544;-81
2021/04/05 10:58:47;;;;;;;3.97;1.60;;;4.80;53.60;;;;;;5116798;23;20240;-82
2021/04/05 11:01:24;;;;;;;9.67;1.70;;;5.00;53.70;;;;;;5018426;28;20179;-82
2021/04/05 11:04:02;;;;;;;5.70;2.17;;;5.30;53.30;;;;;;5036826;28;20527;-83
2021/04/05 11:06:35;;;;;;;15.77;2.40;;;5.20;57.70;;;;;;5035976;28;20310;-83
2021/04/05 11:09:14;;;;;;;6.67;3.13;;;4.60;59.30;;;;;;5035834;28;20208;-82
2021/04/05 11:11:54;;;;;;;10.10;2.20;;;4.30;61.00;;;;;;5036040;28;20741;-82
2021/04/05 11:14:29;;;;;;;15.07;2.10;;;4.60;59.40;;;;;;5018084;28;20257;-82
2021/04/05 11:17:04;;;;;;;4.77;1.93;;;4.50;57.80;;;;;;5036031;28;20179;-82
2021/04/05 11:19:49;;;;;;;14.77;3.10;;;4.50;56.80;;;;;;5036559;28;20207;-82
2021/04/05 11:22:28;;;;;;;9.10;2.17;;;5.00;58.30;;;;;;5035710;28;20179;-82
2021/04/05 11:25:04;;;;;;;7.40;1.93;;;4.70;57.10;;;;;;5017998;28;20182;-82
2021/04/05 11:27:43;;;;;;;10.30;2.00;;;4.30;60.90;;;;;;5017681;28;20175;-82
2021/04/05 11:30:23;;;;;;;5.77;1.57;;;3.80;64.00;;;;;;5035848;28;20258;-82
2021/04/05 11:32:51;;;;;;;19.00;3.80;;;3.30;67.20;;;;;;5035426;28;20182;-82
2021/04/05 11:35:34;;;;;;;4.10;1.73;;;3.10;69.70;;;;;;5035217;28;20646;-82
2021/04/05 11:38:13;;;;;;;12.40;2.30;;;3.70;66.20;;;;;;5017575;28;20207;-82
2021/04/05 11:40:50;;;;;;;4.33;1.80;;;4.10;62.20;;;;;;5035380;28;20176;-82
2021/04/05 11:43:22;;;;;;;12.10;2.30;;;4.50;58.00;;;;;;5035615;28;20164;-82
2021/04/05 11:46:04;;;;;;;11.23;2.27;;;5.00;59.50;;;;;;5017550;28;20183;-82
2021/04/05 11:48:40;;;;;;;14.47;2.43;;;5.00;58.70;;;;;;5017193;28;20211;-82
2021/04/05 11:51:24;;;;;;;13.67;2.03;;;4.60;65.50;;;;;;5017737;28;20538;-82
2021/04/05 11:54:07;;;;;;;9.40;2.23;;;3.90;67.30;;;;;;5035141;28;20184;-82
2021/04/05 11:56:43;;;;;;;10.60;2.00;;;3.60;69.80;;;;;;5016796;28;20287;-82
2021/04/05 11:59:23;;;;;;;8.77;1.97;;;3.60;71.40;;;;;;5034703;28;20725;-82
2021/04/05 12:02:04;;;;;;;10.97;1.97;;;3.90;69.40;;;;;;5034915;28;20183;-82
2021/04/05 12:04:41;;;;;;;8.17;2.00;;;4.30;68.30;;;;;;5034992;28;20165;-82
2021/04/05 12:07:24;;;;;;;12.37;3.10;;;4.40;67.30;;;;;;5034783;28;20629;-83
2021/04/05 12:10:16;;;;;;;4.60;1.90;;;4.60;66.30;;;;;;5034813;28;20169;-82
2021/04/05 12:12:53;;;;;;;3.53;1.27;;;4.70;65.60;;;;;;5016887;28;20291;-82
2021/04/05 12:15:26;;;;;;;9.87;2.07;;;4.80;64.10;;;;;;5016747;28;20232;-83
2021/04/05 12:17:54;;;;;;;12.65;1.60;;;4.80;63.90;;;;;;5034699;28;20204;-82
2021/04/05 12:20:24;;;;;;;5.33;1.50;;;4.90;62.00;;;;;;5016616;28;20416;-82
2021/04/05 12:23:00;;;;;;;3.13;1.50;;;4.90;63.70;;;;;;5016661;28;20179;-83
2021/04/05 12:25:41;;;;;;;7.67;1.60;;;4.80;63.90;;;;;;5034742;28;20539;-82
2021/04/05 12:28:14;;;;;;;6.10;1.67;;;4.80;63.40;;;;;;5034272;28;20239;-82
2021/04/05 12:30:43;;;;;;;6.53;1.87;;;4.80;62.10;;;;;;5034348;28;20246;-82
2021/04/05 12:33:17;;;;;;;4.97;1.80;;;5.20;62.20;;;;;;5016518;28;20173;-82
2021/04/05 12:35:43;;;;;;;3.37;1.37;;;5.20;61.50;;;;;;5034291;28;20191;-82
2021/04/05 12:38:21;;;;;;;5.97;1.70;;;5.20;63.00;;;;;;5016440;28;20671;-82
2021/04/05 12:41:01;;;;;;;6.70;2.07;;;5.40;67.10;;;;;;5034384;28;20200;-82
2021/04/05 12:43:34;;;;;;;11.23;2.47;;;5.50;67.70;;;;;;5016838;28;20177;-82
2021/04/05 12:46:18;;;;;;;4.47;1.80;;;5.10;64.70;;;;;;5033973;28;20180;-82
2021/04/05 12:48:51;;;;;;;8.13;2.03;;;4.90;62.70;;;;;;5016054;28;20200;-82
2021/04/05 12:51:31;;;;;;;3.10;1.23;;;4.40;62.50;;;;;;5016105;28;20656;-82
2021/04/05 12:54:10;;;;;;;3.57;1.30;;;4.10;66.20;;;;;;5034274;28;20173;-82
2021/04/05 12:56:51;;;;;;;1.17;1.07;;;3.20;70.70;;;;;;5034148;28;20232;-82
2021/04/05 12:59:32;;;;;;;3.20;1.23;;;2.80;68.90;;;;;;5033547;28;20212;-82
2021/04/05 13:02:32;;;;;;;4.63;1.47;;;2.80;68.20;;;;;;5015972;28;20173;-82
2021/04/05 13:05:22;;;;;;;3.70;1.20;;;3.00;70.00;;;;;;5033893;28;20188;-82
2021/04/05 13:08:04;;;;;;;6.60;1.53;;;3.00;72.30;;;;;;5033460;28;20271;-82
2021/04/05 13:10:38;;;;;;;5.17;1.30;;;2.80;73.20;;;;;;5034175;28;20297;-82
2021/04/05 13:13:11;;;;;;;6.73;1.67;;;2.80;74.30;;;;;;5033995;28;20170;-82
2021/04/05 13:15:43;;;;;;;3.37;1.57;;;2.90;73.40;;;;;;5033517;28;20203;-82
2021/04/05 13:18:22;;;;;;;2.87;1.33;;;3.30;71.20;;;;;;5015726;28;20210;-82
2021/04/05 13:20:54;;;;;;;1.70;1.23;;;3.80;68.50;;;;;;5015774;28;20182;-82
2021/04/05 13:23:25;;;;;;;4.63;1.60;;;4.20;68.80;;;;;;5033440;28;20164;-82
2021/04/05 13:26:07;;;;;;;8.93;2.40;;;4.30;68.50;;;;;;5033356;28;20179;-82
2021/04/05 13:28:36;;;;;;;7.67;1.87;;;4.60;66.20;;;;;;5015607;28;20214;-82
2021/04/05 13:31:07;;;;;;;7.20;2.07;;;4.70;66.90;;;;;;5015646;28;20332;-82
2021/04/05 13:33:36;;;;;;;14.20;2.60;;;4.80;65.50;;;;;;5033393;28;20186;-82
2021/04/05 13:36:17;;;;;;;6.93;2.17;;;5.10;67.20;;;;;;5015593;28;20655;-82
2021/04/05 13:39:05;;;;;;;8.93;2.53;;;5.20;65.80;;;;;;5015397;28;20586;-82
2021/04/05 13:41:37;;;;;;;6.77;1.67;;;5.30;66.10;;;;;;5015261;28;20266;-82
2021/04/05 13:44:17;;;;;;;8.87;2.23;;;5.60;67.10;;;;;;5033069;28;20201;-82
2021/04/05 13:46:47;;;;;;;5.63;1.73;;;5.50;61.70;;;;;;5033055;28;20177;-82
2021/04/05 13:49:26;;;;;;;8.50;2.80;;;5.30;63.80;;;;;;5015570;28;20293;-82
2021/04/05 13:51:53;;;;;;;15.37;2.73;;;5.30;61.30;;;;;;5033239;28;20221;-81
2021/04/05 13:54:24;;;;;;;8.80;3.30;;;5.10;58.80;;;;;;5015373;28;20184;-81